createdAt,value
2023-04-26T00:00:09.573Z,100328.03
2023-04-26T00:02:38.231Z,100334.53
2023-04-26T00:05:09.575Z,100336.19
2023-04-26T00:07:41.285Z,100335.91
2023-04-26T00:10:09.738Z,100332.38
2023-04-26T00:12:37.772Z,100335.88
2023-04-26T00:15:05.844Z,100338.81
2023-04-26T00:17:34.213Z,100339.41
2023-04-26T00:20:03.349Z,100337.31
2023-04-26T00:22:31.722Z,100342.88
2023-04-26T00:24:59.434Z,100344.50
2023-04-26T00:27:27.352Z,100343.56
2023-04-26T00:29:56.786Z,100343.69
2023-04-26T00:32:24.527Z,100348.03
2023-04-26T00:34:52.906Z,100351.72
2023-04-26T00:37:21.788Z,100354.34
2023-04-26T00:39:49.586Z,100357.00
2023-04-26T00:42:19.648Z,100360.25
2023-04-26T00:44:47.265Z,100358.28
2023-04-26T00:47:15.454Z,100359.03
2023-04-26T00:49:43.356Z,100367.09
2023-04-26T00:52:11.258Z,100371.63
2023-04-26T00:54:41.147Z,100368.69
2023-04-26T00:57:10.265Z,100370.84
2023-04-26T00:59:39.369Z,100366.88
2023-04-26T01:02:07.323Z,100363.88
2023-04-26T01:04:35.493Z,100367.38
2023-04-26T01:07:04.055Z,100359.22
2023-04-26T01:09:34.773Z,100370.00
2023-04-26T01:12:02.669Z,100371.22
2023-04-26T01:14:30.525Z,100357.97
2023-04-26T01:16:58.694Z,100366.34
2023-04-26T01:19:26.390Z,100352.41
2023-04-26T01:21:54.028Z,100353.66
2023-04-26T01:24:22.785Z,100369.59
2023-04-26T01:26:50.865Z,100361.34
2023-04-26T01:29:27.392Z,100365.03
2023-04-26T01:31:55.082Z,100354.22
2023-04-26T01:34:23.036Z,100355.53
2023-04-26T01:36:51.324Z,100357.72
2023-04-26T01:39:19.375Z,100353.94
2023-04-26T01:41:47.650Z,100370.13
2023-04-26T01:44:15.904Z,100359.31
2023-04-26T01:46:43.652Z,100365.78
2023-04-26T01:49:15.101Z,100354.63
2023-04-26T01:51:42.897Z,100356.88
2023-04-26T01:54:11.681Z,100359.38
2023-04-26T01:56:39.694Z,100354.69
2023-04-26T01:59:07.587Z,100359.50
2023-04-26T02:01:37.616Z,100358.59
2023-04-26T02:04:06.742Z,100357.63
2023-04-26T02:06:35.814Z,100353.78
2023-04-26T02:09:04.536Z,100356.56
2023-04-26T02:11:32.822Z,100352.56
2023-04-26T02:14:00.942Z,100356.13
2023-04-26T02:16:28.929Z,100354.81
2023-04-26T02:18:56.998Z,100351.81
2023-04-26T02:21:27.379Z,100356.50
2023-04-26T02:23:55.445Z,100359.31
2023-04-26T02:26:23.267Z,100363.53
2023-04-26T02:28:52.274Z,100355.38
2023-04-26T02:31:22.814Z,100359.75
2023-04-26T02:33:51.217Z,100362.75
2023-04-26T02:36:19.090Z,100357.50
2023-04-26T02:38:46.782Z,100361.94
2023-04-26T02:41:14.567Z,100359.47
2023-04-26T02:43:43.608Z,100367.47
2023-04-26T02:46:12.024Z,100364.16
2023-04-26T02:48:40.042Z,100370.72
2023-04-26T02:51:09.025Z,100365.91
2023-04-26T02:53:36.792Z,100367.63
2023-04-26T02:56:04.719Z,100363.84
2023-04-26T02:58:32.587Z,100366.81
2023-04-26T03:01:01.885Z,100364.00
2023-04-26T03:03:33.977Z,100367.44
2023-04-26T03:06:03.304Z,100367.88
2023-04-26T03:08:31.240Z,100372.63
2023-04-26T03:10:59.269Z,100361.69
2023-04-26T03:13:28.277Z,100371.06
2023-04-26T03:15:58.872Z,100371.91
2023-04-26T03:18:26.836Z,100362.75
2023-04-26T03:20:55.119Z,100362.00
2023-04-26T03:23:25.594Z,100361.84
2023-04-26T03:25:54.748Z,100359.06
2023-04-26T03:28:24.100Z,100369.63
2023-04-26T03:30:52.072Z,100369.63
2023-04-26T03:33:21.115Z,100373.97
2023-04-26T03:35:48.915Z,100372.19
2023-04-26T03:38:18.377Z,100379.25
2023-04-26T03:40:46.540Z,100384.56
2023-04-26T03:43:14.555Z,100387.09
2023-04-26T03:45:48.018Z,100387.94
2023-04-26T03:48:17.200Z,100382.53
2023-04-26T03:50:46.308Z,100381.19
2023-04-26T03:53:14.358Z,100380.91
2023-04-26T03:55:42.898Z,100383.38
2023-04-26T03:58:10.658Z,100393.13
2023-04-26T04:00:38.772Z,100399.38
2023-04-26T04:03:08.276Z,100392.75
2023-04-26T04:05:36.456Z,100404.28
2023-04-26T04:08:04.805Z,100406.66
2023-04-26T04:10:32.744Z,100405.81
2023-04-26T04:13:00.753Z,100398.13
2023-04-26T04:15:29.060Z,100408.59
2023-04-26T04:17:57.762Z,100404.13
2023-04-26T04:20:27.081Z,100407.22
2023-04-26T04:22:58.917Z,100409.00
2023-04-26T04:25:27.414Z,100405.50
2023-04-26T04:27:58.867Z,100402.34
2023-04-26T04:30:26.809Z,100392.84
2023-04-26T04:32:55.098Z,100395.03
2023-04-26T04:35:23.441Z,100391.63
2023-04-26T04:37:52.162Z,100385.00
2023-04-26T04:40:19.967Z,100384.34
2023-04-26T04:42:51.087Z,100383.00
2023-04-26T04:45:21.721Z,100385.38
2023-04-26T04:47:50.788Z,100393.97
2023-04-26T04:50:18.816Z,100385.38
2023-04-26T04:52:47.288Z,100393.47
2023-04-26T04:55:17.623Z,100398.88
2023-04-26T04:57:45.651Z,100393.78
2023-04-26T05:00:14.559Z,100389.16
2023-04-26T05:02:53.585Z,100401.16
2023-04-26T05:05:21.532Z,100404.03
2023-04-26T05:07:49.383Z,100399.19
2023-04-26T05:10:17.937Z,100397.84
2023-04-26T05:12:46.752Z,100393.47
2023-04-26T05:15:16.387Z,100395.09
2023-04-26T05:17:44.276Z,100400.13
2023-04-26T05:20:20.930Z,100394.94
2023-04-26T05:22:49.890Z,100395.88
2023-04-26T05:25:19.244Z,100397.69
2023-04-26T05:27:50.794Z,100396.28
2023-04-26T05:30:48.159Z,100405.03
2023-04-26T05:33:51.949Z,100413.09
2023-04-26T05:36:30.844Z,100409.81
2023-04-26T05:38:58.602Z,100410.41
2023-04-26T05:41:26.471Z,100408.22
2023-04-26T05:43:55.710Z,100409.16
2023-04-26T05:46:24.078Z,100412.16
2023-04-26T05:48:52.276Z,100411.72
2023-04-26T05:51:21.547Z,100401.25
2023-04-26T05:53:50.031Z,100411.63
2023-04-26T05:56:18.086Z,100402.84
2023-04-26T05:58:45.581Z,100396.09
2023-04-26T06:01:13.953Z,100393.78
2023-04-26T06:03:45.109Z,100386.75
2023-04-26T06:06:13.061Z,100390.47
2023-04-26T06:08:42.965Z,100396.69
2023-04-26T06:11:11.826Z,100389.50
2023-04-26T06:13:39.410Z,100402.13
2023-04-26T06:16:09.289Z,100407.81
2023-04-26T06:18:37.102Z,100408.09
2023-04-26T06:21:05.329Z,100410.50
2023-04-26T06:23:32.977Z,100411.06
2023-04-26T06:26:01.263Z,100408.94
2023-04-26T06:28:28.869Z,100407.16
2023-04-26T06:30:56.628Z,100412.56
2023-04-26T06:33:25.328Z,100407.91
2023-04-26T06:35:53.210Z,100409.22
2023-04-26T06:38:21.602Z,100409.94
2023-04-26T06:40:49.181Z,100410.09
2023-04-26T06:43:18.138Z,100415.47
2023-04-26T06:45:57.157Z,100404.75
2023-04-26T06:48:24.808Z,100414.97
2023-04-26T06:50:52.432Z,100408.69
2023-04-26T06:53:22.933Z,100415.06
2023-04-26T06:55:50.681Z,100406.53
2023-04-26T06:58:18.691Z,100408.19
2023-04-26T07:00:46.129Z,100417.00
2023-04-26T07:03:13.737Z,100410.31
2023-04-26T07:05:41.645Z,100404.13
2023-04-26T07:08:09.311Z,100406.19
2023-04-26T07:10:38.119Z,100415.81
2023-04-26T07:13:07.965Z,100419.28
2023-04-26T07:15:36.906Z,100406.72
2023-04-26T07:18:04.411Z,100417.44
2023-04-26T07:20:32.397Z,100416.09
2023-04-26T07:23:00.160Z,100413.50
2023-04-26T07:25:27.710Z,100408.56
2023-04-26T07:27:55.160Z,100407.53
2023-04-26T07:30:22.708Z,100406.84
2023-04-26T07:32:50.516Z,100415.34
2023-04-26T07:35:18.092Z,100419.28
2023-04-26T07:37:45.665Z,100422.56
2023-04-26T07:40:13.788Z,100427.44
2023-04-26T07:42:42.026Z,100434.63
2023-04-26T07:45:10.325Z,100428.03
2023-04-26T07:47:38.482Z,100427.94
2023-04-26T07:50:06.644Z,100447.78
2023-04-26T07:52:34.444Z,100430.84
2023-04-26T07:55:02.152Z,100427.06
2023-04-26T07:57:29.897Z,100434.78
2023-04-26T07:59:57.954Z,100431.94
2023-04-26T08:02:33.238Z,100435.19
2023-04-26T08:05:05.692Z,100421.66
2023-04-26T08:07:33.283Z,100431.78
2023-04-26T08:10:01.042Z,100430.25
2023-04-26T08:12:28.507Z,100425.28
2023-04-26T08:14:56.177Z,100428.31
2023-04-26T08:17:23.692Z,100430.25
2023-04-26T08:19:51.608Z,100426.50
2023-04-26T08:22:19.979Z,100434.13
2023-04-26T08:24:50.172Z,100424.56
2023-04-26T08:27:19.185Z,100428.81
2023-04-26T08:29:46.856Z,100426.19
2023-04-26T08:32:14.600Z,100436.28
2023-04-26T08:34:42.719Z,100430.44
2023-04-26T08:37:11.228Z,100425.56
2023-04-26T08:39:39.836Z,100426.81
2023-04-26T08:42:13.831Z,100425.31
2023-04-26T08:44:45.127Z,100423.91
2023-04-26T08:47:28.627Z,100420.34
2023-04-26T08:50:01.075Z,100413.72
2023-04-26T08:52:29.245Z,100410.25
2023-04-26T08:55:00.404Z,100407.03
2023-04-26T08:57:27.891Z,100396.16
2023-04-26T08:59:56.300Z,100399.75
2023-04-26T09:02:24.337Z,100401.13
2023-04-26T09:04:52.255Z,100400.34
2023-04-26T09:07:31.019Z,100382.72
2023-04-26T09:09:59.000Z,100393.81
2023-04-26T09:12:26.529Z,100392.03
2023-04-26T09:14:54.830Z,100394.97
2023-04-26T09:17:32.754Z,100378.78
2023-04-26T09:20:01.016Z,100379.22
2023-04-26T09:22:30.221Z,100375.38
2023-04-26T09:24:58.105Z,100369.84
2023-04-26T09:27:35.194Z,100383.72
2023-04-26T09:30:11.241Z,100382.66
2023-04-26T09:32:56.742Z,100376.13
2023-04-26T09:35:32.668Z,100384.03
2023-04-26T09:38:12.345Z,100382.25
2023-04-26T09:40:41.905Z,100370.72
2023-04-26T09:43:11.815Z,100380.41
2023-04-26T09:45:58.449Z,100378.81
2023-04-26T09:48:30.862Z,100372.16
2023-04-26T09:50:59.710Z,100377.41
2023-04-26T09:53:41.880Z,100371.97
2023-04-26T09:56:10.120Z,100381.44
2023-04-26T09:59:00.795Z,100376.97
2023-04-26T10:01:33.341Z,100373.16
2023-04-26T10:04:04.900Z,100371.50
2023-04-26T10:06:33.087Z,100363.97
2023-04-26T10:09:01.801Z,100368.47
2023-04-26T10:11:29.353Z,100353.69
2023-04-26T10:13:56.805Z,100353.69
2023-04-26T10:16:24.429Z,100356.47
2023-04-26T10:18:52.717Z,100363.72
2023-04-26T10:21:27.672Z,100353.16
2023-04-26T10:23:55.162Z,100361.50
2023-04-26T10:26:57.651Z,100363.16
2023-04-26T10:29:26.225Z,100349.53
2023-04-26T10:32:03.000Z,100359.28
2023-04-26T10:34:34.015Z,100355.34
2023-04-26T10:37:11.281Z,100355.91
2023-04-26T10:39:39.817Z,100355.34
2023-04-26T10:58:50.768Z,100356.34
2023-04-26T11:01:24.011Z,100355.25
2023-04-26T11:04:12.554Z,100354.50
2023-04-26T11:06:58.012Z,100352.88
2023-04-26T11:09:36.268Z,100343.13
2023-04-26T11:12:04.867Z,100350.63
2023-04-26T11:14:35.338Z,100351.75
2023-04-26T11:17:06.533Z,100351.16
2023-04-26T11:19:35.706Z,100351.44
2023-04-26T11:22:07.022Z,100358.13
2023-04-26T11:24:39.268Z,100358.97
2023-04-26T11:27:11.685Z,100362.59
2023-04-26T11:29:40.908Z,100349.53
2023-04-26T11:32:09.398Z,100360.91
2023-04-26T11:34:41.783Z,100363.69
2023-04-26T11:37:09.602Z,100354.78
2023-04-26T11:39:37.437Z,100353.69
2023-04-26T11:42:08.998Z,100370.41
2023-04-26T11:44:37.485Z,100343.94
2023-04-26T11:47:08.270Z,100344.50
2023-04-26T11:49:38.911Z,100348.38
2023-04-26T11:52:06.665Z,100341.34
2023-04-26T11:54:36.194Z,100338.53
2023-04-26T11:57:17.053Z,100341.94
2023-04-26T11:59:46.175Z,100347.16
2023-04-26T12:02:14.403Z,100346.44
2023-04-26T12:04:42.390Z,100346.97
2023-04-26T12:07:10.821Z,100336.59
2023-04-26T12:09:41.824Z,100330.25
2023-04-26T12:12:10.236Z,100333.47
2023-04-26T12:14:40.134Z,100328.16
2023-04-26T12:17:07.959Z,100321.13
2023-04-26T12:19:40.256Z,100323.75
2023-04-26T12:22:08.473Z,100332.69
2023-04-26T12:24:38.065Z,100327.28
2023-04-26T12:27:07.309Z,100327.69
2023-04-26T12:29:35.133Z,100329.00
2023-04-26T12:32:03.129Z,100331.41
2023-04-26T12:34:31.132Z,100341.41
2023-04-26T12:36:58.959Z,100330.56
2023-04-26T12:39:26.611Z,100344.38
2023-04-26T12:41:55.244Z,100338.34
2023-04-26T12:44:22.941Z,100323.00
2023-04-26T12:46:51.444Z,100328.69
2023-04-26T12:49:18.963Z,100328.75
2023-04-26T12:51:46.773Z,100320.31
2023-04-26T12:54:14.393Z,100335.03
2023-04-26T12:56:44.509Z,100327.63
2023-04-26T12:59:12.116Z,100328.69
2023-04-26T13:01:39.873Z,100323.84
2023-04-26T13:04:07.838Z,100321.25
2023-04-26T13:06:37.845Z,100326.13
2023-04-26T13:09:08.003Z,100322.19
2023-04-26T13:11:35.806Z,100321.72
2023-04-26T13:14:03.251Z,100325.56
2023-04-26T13:16:32.528Z,100317.97
2023-04-26T13:19:00.182Z,100312.97
2023-04-26T13:21:27.717Z,100306.50
2023-04-26T13:23:55.172Z,100327.34
2023-04-26T13:26:24.389Z,100311.50
2023-04-26T13:28:52.810Z,100316.06
2023-04-26T13:31:20.506Z,100311.75
2023-04-26T13:33:49.809Z,100317.38
2023-04-26T13:36:17.503Z,100298.91
2023-04-26T13:38:45.193Z,100328.72
2023-04-26T13:41:13.177Z,100319.53
2023-04-26T13:43:41.116Z,100324.59
2023-04-26T13:46:08.749Z,100322.66
2023-04-26T13:48:36.517Z,100309.06
2023-04-26T13:51:06.995Z,100316.53
2023-04-26T13:53:34.968Z,100301.75
2023-04-26T13:56:02.550Z,100309.06
2023-04-26T13:58:30.181Z,100310.84
2023-04-26T14:00:57.622Z,100306.41
2023-04-26T14:03:26.990Z,100299.31
2023-04-26T14:05:55.160Z,100302.88
2023-04-26T14:08:22.911Z,100307.19
2023-04-26T14:10:51.774Z,100300.53
2023-04-26T14:13:19.734Z,100304.41
2023-04-26T14:15:47.735Z,100296.84
2023-04-26T14:18:17.504Z,100307.84
2023-04-26T14:20:45.216Z,100303.00
2023-04-26T14:23:12.674Z,100298.31
2023-04-26T14:25:41.540Z,100305.19
2023-04-26T14:28:09.055Z,100304.34
2023-04-26T14:30:36.638Z,100304.06
2023-04-26T14:33:05.258Z,100293.63
2023-04-26T14:35:32.782Z,100296.31
2023-04-26T14:38:00.519Z,100289.63
2023-04-26T14:40:28.157Z,100289.00
2023-04-26T14:42:56.401Z,100291.97
2023-04-26T14:45:33.406Z,100288.66
2023-04-26T14:48:11.984Z,100289.34
2023-04-26T14:50:40.094Z,100291.78
2023-04-26T14:53:08.220Z,100280.56
2023-04-26T14:55:37.296Z,100276.63
2023-04-26T14:58:04.982Z,100278.53
2023-04-26T15:00:32.665Z,100282.16
2023-04-26T15:03:00.379Z,100274.81
2023-04-26T15:05:27.930Z,100276.25
2023-04-26T15:07:55.574Z,100276.06
2023-04-26T15:10:24.716Z,100272.44
2023-04-26T15:12:52.569Z,100278.91
2023-04-26T15:15:20.070Z,100288.88
2023-04-26T15:17:47.760Z,100283.19
2023-04-26T15:20:15.874Z,100282.31
2023-04-26T15:22:43.714Z,100281.44
2023-04-26T15:25:11.478Z,100294.25
2023-04-26T15:27:40.430Z,100298.94
2023-04-26T15:30:11.654Z,100299.78
2023-04-26T15:32:40.379Z,100288.31
2023-04-26T15:35:08.154Z,100286.78
2023-04-26T15:37:37.219Z,100289.34
2023-04-26T15:40:06.320Z,100298.59
2023-04-26T15:42:33.936Z,100299.72
2023-04-26T15:45:02.002Z,100290.88
2023-04-26T15:47:30.130Z,100301.69
2023-04-26T15:50:03.628Z,100301.44
2023-04-26T15:52:36.868Z,100294.97
2023-04-26T15:55:07.340Z,100302.25
2023-04-26T15:57:35.151Z,100303.88
2023-04-26T16:00:02.904Z,100303.19
2023-04-26T16:02:32.305Z,100309.34
2023-04-26T16:05:00.061Z,100307.47
2023-04-26T16:07:27.623Z,100315.25
2023-04-26T16:09:55.163Z,100314.94
2023-04-26T16:12:23.385Z,100321.47
2023-04-26T16:14:52.013Z,100313.25
2023-04-26T16:17:19.521Z,100317.72
2023-04-26T16:19:48.495Z,100314.72
2023-04-26T16:22:16.105Z,100317.88
2023-04-26T16:24:43.899Z,100319.16
2023-04-26T16:27:11.474Z,100327.44
2023-04-26T16:29:39.213Z,100328.63
2023-04-26T16:32:06.662Z,100324.47
2023-04-26T16:34:34.440Z,100336.72
2023-04-26T16:37:01.900Z,100338.41
2023-04-26T16:39:29.540Z,100331.84
2023-04-26T16:41:57.609Z,100327.25
2023-04-26T16:44:25.349Z,100319.88
2023-04-26T16:46:52.826Z,100332.97
2023-04-26T16:49:21.013Z,100328.63
2023-04-26T16:51:58.922Z,100342.53
2023-04-26T16:54:26.675Z,100342.47
2023-04-26T16:56:54.174Z,100337.91
2023-04-26T16:59:21.684Z,100343.16
2023-04-26T17:01:49.277Z,100338.22
2023-04-26T17:04:16.955Z,100341.84
2023-04-26T17:06:45.261Z,100340.84
2023-04-26T17:09:13.109Z,100339.16
2023-04-26T17:11:43.668Z,100343.44
2023-04-26T17:14:11.279Z,100340.81
2023-04-26T17:16:38.806Z,100338.72
2023-04-26T17:19:06.946Z,100341.31
2023-04-26T17:21:34.611Z,100342.78
2023-04-26T17:24:02.193Z,100334.53
2023-04-26T17:26:30.616Z,100343.97
2023-04-26T17:28:58.260Z,100338.25
2023-04-26T17:31:25.724Z,100338.53
2023-04-26T17:33:53.202Z,100342.31
2023-04-26T17:36:20.820Z,100338.22
2023-04-26T17:38:48.727Z,100329.16
2023-04-26T17:41:19.045Z,100333.59
2023-04-26T17:43:46.604Z,100341.28
2023-04-26T17:46:14.454Z,100334.91
2023-04-26T17:48:41.929Z,100335.75
2023-04-26T17:51:09.625Z,100336.25
2023-04-26T17:53:37.447Z,100331.72
2023-04-26T17:56:07.678Z,100335.19
2023-04-26T17:58:35.156Z,100336.41
2023-04-26T18:01:02.921Z,100337.50
2023-04-26T18:03:31.569Z,100337.13
2023-04-26T18:05:59.487Z,100335.59
2023-04-26T18:08:27.447Z,100339.28
2023-04-26T18:10:55.987Z,100341.09
2023-04-26T18:13:25.316Z,100342.53
2023-04-26T18:15:55.016Z,100343.84
2023-04-26T18:18:24.578Z,100342.03
2023-04-26T18:20:54.068Z,100333.03
2023-04-26T18:23:22.088Z,100344.78
2023-04-26T18:25:50.666Z,100345.50
2023-04-26T18:28:18.616Z,100342.94
2023-04-26T18:30:46.441Z,100344.75
2023-04-26T18:33:14.292Z,100349.03
2023-04-26T18:35:42.104Z,100341.94
2023-04-26T18:38:09.821Z,100346.13
2023-04-26T18:40:37.550Z,100350.91
2023-04-26T18:43:05.191Z,100343.19
2023-04-26T18:45:34.605Z,100344.72
2023-04-26T18:48:02.248Z,100344.03
2023-04-26T18:50:31.416Z,100344.81
2023-04-26T18:52:59.113Z,100337.94
2023-04-26T18:55:26.935Z,100350.78
2023-04-26T18:57:54.945Z,100345.88
2023-04-26T19:00:22.754Z,100336.19
2023-04-26T19:02:51.313Z,100338.09
2023-04-26T19:05:19.542Z,100341.09
2023-04-26T19:07:47.705Z,100341.53
2023-04-26T19:10:16.725Z,100333.88
2023-04-26T19:12:44.695Z,100339.38
2023-04-26T19:15:12.344Z,100332.81
2023-04-26T19:17:40.473Z,100340.38
2023-04-26T19:20:12.673Z,100342.03
2023-04-26T19:22:42.202Z,100345.28
2023-04-26T19:25:10.520Z,100340.22
2023-04-26T19:27:38.662Z,100344.59
2023-04-26T19:30:07.304Z,100340.16
2023-04-26T19:32:35.492Z,100333.72
2023-04-26T19:35:06.241Z,100335.72
2023-04-26T19:37:33.961Z,100333.66
2023-04-26T19:40:01.743Z,100330.00
2023-04-26T19:42:29.740Z,100334.72
2023-04-26T19:44:58.458Z,100325.47
2023-04-26T19:47:26.306Z,100328.91
2023-04-26T19:49:55.645Z,100331.22
2023-04-26T19:52:23.355Z,100326.09
2023-04-26T19:54:54.703Z,100329.97
2023-04-26T19:57:23.131Z,100317.22
2023-04-26T19:59:50.721Z,100320.44
2023-04-26T20:02:18.390Z,100322.81
2023-04-26T20:04:46.208Z,100322.72
2023-04-26T20:07:14.133Z,100329.06
2023-04-26T20:09:41.632Z,100325.03
2023-04-26T20:12:10.136Z,100328.22
2023-04-26T20:14:37.988Z,100316.03
2023-04-26T20:17:06.182Z,100314.16
2023-04-26T20:19:34.414Z,100314.94
2023-04-26T20:22:01.974Z,100306.16
2023-04-26T20:24:29.883Z,100307.44
2023-04-26T20:26:57.909Z,100302.03
2023-04-26T20:29:26.097Z,100306.97
2023-04-26T20:31:53.691Z,100309.63
2023-04-26T20:34:21.584Z,100312.84
2023-04-26T20:36:49.537Z,100307.59
2023-04-26T20:39:17.276Z,100301.56
2023-04-26T20:41:45.357Z,100306.13
2023-04-26T20:44:13.277Z,100309.28
2023-04-26T20:46:41.387Z,100312.97
2023-04-26T20:49:09.366Z,100312.63
2023-04-26T20:51:37.742Z,100311.44
2023-04-26T20:54:05.284Z,100317.84
2023-04-26T20:56:33.578Z,100311.38
2023-04-26T20:59:02.116Z,100315.59
2023-04-26T21:01:30.858Z,100318.19
2023-04-26T21:03:58.597Z,100332.09
2023-04-26T21:06:27.471Z,100327.47
2023-04-26T21:08:55.214Z,100334.22
2023-04-26T21:11:23.283Z,100337.22
2023-04-26T21:13:51.242Z,100330.47
2023-04-26T21:16:19.408Z,100330.66
2023-04-26T21:18:47.799Z,100334.25
2023-04-26T21:21:15.946Z,100338.03
2023-04-26T21:23:44.215Z,100342.06
2023-04-26T21:26:12.319Z,100335.94
2023-04-26T21:28:40.401Z,100336.56
2023-04-26T21:31:09.397Z,100331.50
2023-04-26T21:33:37.535Z,100326.69
2023-04-26T21:36:05.826Z,100317.63
2023-04-26T21:38:35.828Z,100321.59
2023-04-26T21:41:03.854Z,100323.72
2023-04-26T21:43:32.020Z,100325.63
2023-04-26T21:45:59.979Z,100327.13
2023-04-26T21:48:28.270Z,100318.06
2023-04-26T21:50:56.508Z,100314.72
2023-04-26T21:53:24.737Z,100311.78
2023-04-26T21:55:52.934Z,100301.44
2023-04-26T21:58:21.512Z,100306.50
2023-04-26T22:00:49.994Z,100303.56
2023-04-26T22:03:19.336Z,100298.50
2023-04-26T22:05:47.685Z,100307.81
2023-04-26T22:08:17.359Z,100294.06
2023-04-26T22:10:45.638Z,100302.06
2023-04-26T22:13:14.226Z,100306.50
2023-04-26T22:15:43.089Z,100300.38
2023-04-26T22:18:11.866Z,100303.56
2023-04-26T22:20:40.610Z,100294.09
2023-04-26T22:23:09.452Z,100281.91
2023-04-26T22:25:38.195Z,100276.66
2023-04-26T22:28:07.405Z,100278.75
2023-04-26T22:30:37.010Z,100284.19
2023-04-26T22:33:07.390Z,100282.88
2023-04-26T22:35:36.189Z,100278.88
2023-04-26T22:38:05.938Z,100287.47
2023-04-26T22:40:36.612Z,100281.34
2023-04-26T22:43:05.990Z,100281.97
2023-04-26T22:45:35.123Z,100283.22
2023-04-26T22:48:04.728Z,100282.78
2023-04-26T22:50:33.520Z,100285.75
2023-04-26T22:53:02.274Z,100270.53
2023-04-26T22:55:31.798Z,100273.44
2023-04-26T22:57:59.806Z,100273.16
2023-04-26T23:00:27.854Z,100281.38
2023-04-26T23:02:57.454Z,100278.63
2023-04-26T23:05:25.919Z,100277.53
2023-04-26T23:07:55.099Z,100280.03
2023-04-26T23:10:24.997Z,100272.47
2023-04-26T23:12:54.001Z,100266.50
2023-04-26T23:15:22.125Z,100263.75
2023-04-26T23:17:51.027Z,100260.22
2023-04-26T23:20:19.768Z,100254.72
2023-04-26T23:22:47.777Z,100247.78
2023-04-26T23:25:15.734Z,100250.03
2023-04-26T23:27:44.078Z,100250.03
2023-04-26T23:30:14.530Z,100253.50
2023-04-26T23:32:42.973Z,100256.00
2023-04-26T23:35:11.379Z,100252.41
2023-04-26T23:37:39.733Z,100259.34
2023-04-26T23:40:10.562Z,100254.22
2023-04-26T23:42:38.682Z,100254.22
2023-04-26T23:45:08.100Z,100253.84
2023-04-26T23:47:36.160Z,100256.38
2023-04-26T23:50:04.521Z,100255.31
2023-04-26T23:52:32.662Z,100249.34
2023-04-26T23:55:00.528Z,100260.13
2023-04-26T23:57:28.384Z,100244.28
2023-04-26T23:59:56.662Z,100247.69
